createdAt,value
2023-05-16T00:01:29.631Z,100.00
2023-05-16T00:03:56.589Z,100.00
2023-05-16T00:06:23.574Z,98.04
2023-05-16T00:08:51.908Z,95.86
2023-05-16T00:11:18.754Z,98.62
2023-05-16T00:13:45.543Z,100.00
2023-05-16T00:16:12.339Z,99.09
2023-05-16T00:18:39.170Z,100.00
2023-05-16T00:21:06.245Z,98.17
2023-05-16T00:23:33.280Z,100.00
2023-05-16T00:26:01.604Z,100.00
2023-05-16T00:28:28.420Z,100.00
2023-05-16T00:30:55.234Z,100.00
2023-05-16T00:33:23.177Z,100.00
2023-05-16T00:35:50.163Z,100.00
2023-05-16T00:38:17.060Z,94.33
2023-05-16T00:40:43.841Z,88.66
2023-05-16T00:43:12.251Z,90.08
2023-05-16T00:45:39.141Z,93.90
2023-05-16T00:48:05.994Z,85.44
2023-05-16T00:50:33.618Z,85.34
2023-05-16T00:53:00.475Z,91.25
2023-05-16T00:55:27.330Z,93.54
2023-05-16T00:57:54.383Z,94.75
2023-05-16T01:00:22.506Z,95.28
2023-05-16T01:02:50.065Z,93.79
2023-05-16T01:05:17.231Z,97.08
2023-05-16T01:07:44.303Z,94.32
2023-05-16T01:10:11.539Z,98.54
2023-05-16T01:12:43.929Z,94.85
2023-05-16T01:15:13.962Z,98.21
2023-05-16T01:17:53.612Z,100.00
2023-05-16T01:20:33.760Z,100.00
2023-05-16T01:23:12.524Z,100.00
2023-05-16T01:25:56.124Z,100.00
2023-05-16T01:28:25.678Z,100.00
2023-05-16T01:30:53.716Z,100.00
2023-05-16T01:33:20.764Z,100.00
2023-05-16T01:35:55.442Z,100.00
2023-05-16T01:38:28.173Z,98.45
2023-05-16T01:40:59.335Z,100.00
2023-05-16T01:43:33.648Z,100.00
2023-05-16T01:46:05.674Z,100.00
2023-05-16T01:48:39.525Z,100.00
2023-05-16T01:51:07.536Z,100.00
2023-05-16T01:53:38.210Z,100.00
2023-05-16T01:56:11.139Z,100.00
2023-05-16T01:58:40.859Z,100.00
2023-05-16T02:01:07.829Z,100.00
2023-05-16T02:03:35.250Z,100.00
2023-05-16T02:06:02.128Z,100.00
2023-05-16T02:08:29.270Z,100.00
2023-05-16T02:10:56.123Z,100.00
2023-05-16T02:13:22.984Z,100.00
2023-05-16T02:15:51.167Z,100.00
2023-05-16T02:18:17.915Z,100.00
2023-05-16T02:20:44.841Z,100.00
2023-05-16T02:23:11.663Z,100.00
2023-05-16T02:25:38.529Z,100.00
2023-05-16T02:28:05.367Z,100.00
2023-05-16T02:30:32.253Z,100.00
2023-05-16T02:33:00.455Z,100.00
2023-05-16T02:35:27.576Z,100.00
2023-05-16T02:37:54.993Z,100.00
2023-05-16T02:40:21.991Z,100.00
2023-05-16T02:42:49.011Z,100.00
2023-05-16T02:45:15.844Z,100.00
2023-05-16T02:47:42.645Z,100.00
2023-05-16T02:50:11.370Z,100.00
2023-05-16T02:52:38.365Z,100.00
2023-05-16T02:55:21.055Z,100.00
2023-05-16T02:57:49.003Z,100.00
2023-05-16T03:00:17.833Z,100.00
2023-05-16T03:02:47.444Z,100.00
2023-05-16T03:05:15.761Z,100.00
2023-05-16T03:07:42.623Z,100.00
2023-05-16T03:10:10.097Z,100.00
2023-05-16T03:12:36.852Z,100.00
2023-05-16T03:15:04.431Z,100.00
2023-05-16T03:17:31.248Z,100.00
2023-05-16T03:19:58.168Z,100.00
2023-05-16T03:22:26.441Z,100.00
2023-05-16T03:24:53.428Z,100.00
2023-05-16T03:27:20.497Z,100.00
2023-05-16T03:29:47.593Z,100.00
2023-05-16T03:32:14.642Z,100.00
2023-05-16T03:34:41.882Z,100.00
2023-05-16T03:37:08.980Z,100.00
2023-05-16T03:39:37.237Z,100.00
2023-05-16T03:42:05.411Z,100.00
2023-05-16T03:44:32.641Z,100.00
2023-05-16T03:46:59.999Z,100.00
2023-05-16T03:49:27.470Z,100.00
2023-05-16T03:51:54.822Z,100.00
2023-05-16T03:54:22.590Z,100.00
2023-05-16T03:56:51.277Z,100.00
2023-05-16T03:59:18.090Z,100.00
2023-05-16T04:01:45.002Z,100.00
2023-05-16T04:04:11.850Z,100.00
2023-05-16T04:06:38.664Z,100.00
2023-05-16T04:09:05.838Z,100.00
2023-05-16T04:11:32.672Z,100.00
2023-05-16T04:14:00.938Z,100.00
2023-05-16T04:16:28.514Z,100.00
2023-05-16T04:18:56.045Z,100.00
2023-05-16T04:21:24.069Z,100.00
2023-05-16T04:23:50.869Z,100.00
2023-05-16T04:26:17.840Z,100.00
2023-05-16T04:28:45.464Z,100.00
2023-05-16T04:31:13.791Z,100.00
2023-05-16T04:33:40.639Z,100.00
2023-05-16T04:36:07.875Z,100.00
2023-05-16T04:38:34.839Z,100.00
2023-05-16T04:41:01.752Z,100.00
2023-05-16T04:43:29.289Z,100.00
2023-05-16T04:45:56.543Z,100.00
2023-05-16T04:48:25.239Z,100.00
2023-05-16T04:50:52.177Z,100.00
2023-05-16T04:53:19.016Z,100.00
2023-05-16T04:55:45.773Z,100.00
2023-05-16T04:58:13.027Z,100.00
2023-05-16T05:00:39.822Z,100.00
2023-05-16T05:03:06.727Z,100.00
2023-05-16T05:05:35.540Z,100.00
2023-05-16T05:08:02.625Z,100.00
2023-05-16T05:10:29.531Z,100.00
2023-05-16T05:12:57.750Z,100.00
2023-05-16T05:15:24.939Z,100.00
2023-05-16T05:17:52.489Z,100.00
2023-05-16T05:20:20.718Z,100.00
2023-05-16T05:22:48.982Z,100.00
2023-05-16T05:25:15.869Z,100.00
2023-05-16T05:27:43.196Z,100.00
2023-05-16T05:30:10.897Z,100.00
2023-05-16T05:32:37.961Z,100.00
2023-05-16T05:35:05.724Z,100.00
2023-05-16T05:37:32.514Z,100.00
2023-05-16T05:40:01.027Z,100.00
2023-05-16T05:42:28.362Z,100.00
2023-05-16T05:44:55.497Z,100.00
2023-05-16T05:47:22.964Z,100.00
2023-05-16T05:50:09.705Z,100.00
2023-05-16T05:52:39.744Z,100.00
2023-05-16T05:55:09.267Z,100.00
2023-05-16T05:57:36.367Z,100.00
2023-05-16T06:00:03.928Z,100.00
2023-05-16T06:02:31.735Z,100.00
2023-05-16T06:04:58.747Z,100.00
2023-05-16T06:07:25.817Z,100.00
2023-05-16T06:09:52.705Z,100.00
2023-05-16T06:12:21.630Z,100.00
2023-05-16T06:14:48.941Z,100.00
2023-05-16T06:17:16.019Z,100.00
2023-05-16T06:19:43.040Z,100.00
2023-05-16T06:22:09.875Z,100.00
2023-05-16T06:24:36.792Z,100.00
2023-05-16T06:27:04.063Z,100.00
2023-05-16T06:29:33.032Z,100.00
2023-05-16T06:32:00.357Z,100.00
2023-05-16T06:34:27.918Z,100.00
2023-05-16T06:36:55.379Z,100.00
2023-05-16T06:39:22.275Z,100.00
2023-05-16T06:41:49.252Z,100.00
2023-05-16T06:44:16.550Z,100.00
2023-05-16T06:46:45.307Z,100.00
2023-05-16T06:49:12.251Z,100.00
2023-05-16T06:51:39.383Z,100.00
2023-05-16T06:54:06.295Z,100.00
2023-05-16T06:56:33.157Z,100.00
2023-05-16T06:58:59.970Z,100.00
2023-05-16T07:01:30.206Z,100.00
2023-05-16T07:03:58.876Z,100.00
2023-05-16T07:06:25.947Z,100.00
2023-05-16T07:08:52.768Z,100.00
2023-05-16T07:11:19.543Z,100.00
2023-05-16T07:13:46.330Z,100.00
2023-05-16T07:16:13.410Z,100.00
2023-05-16T07:18:40.297Z,100.00
2023-05-16T07:21:08.532Z,100.00
2023-05-16T07:23:35.351Z,100.00
2023-05-16T07:26:02.289Z,100.00
2023-05-16T07:28:29.146Z,100.00
2023-05-16T07:30:56.095Z,100.00
2023-05-16T07:33:22.957Z,100.00
2023-05-16T07:35:49.753Z,100.00
2023-05-16T07:38:17.944Z,100.00
2023-05-16T07:40:44.992Z,100.00
2023-05-16T07:43:12.156Z,100.00
2023-05-16T07:45:39.252Z,100.00
2023-05-16T07:48:06.167Z,100.00
2023-05-16T07:50:53.226Z,100.00
2023-05-16T07:53:46.348Z,100.00
2023-05-16T07:56:33.556Z,100.00
2023-05-16T07:59:00.481Z,100.00
2023-05-16T08:01:27.421Z,100.00
2023-05-16T08:03:54.253Z,100.00
2023-05-16T08:06:21.268Z,100.00
2023-05-16T08:08:49.472Z,100.00
2023-05-16T08:11:16.523Z,100.00
2023-05-16T08:13:43.380Z,100.00
2023-05-16T08:16:12.746Z,100.00
2023-05-16T08:18:39.675Z,100.00
2023-05-16T08:21:06.589Z,100.00
2023-05-16T08:23:34.223Z,100.00
2023-05-16T08:26:02.687Z,100.00
2023-05-16T08:28:29.526Z,100.00
2023-05-16T08:30:56.528Z,100.00
2023-05-16T08:33:23.632Z,100.00
2023-05-16T08:35:51.968Z,100.00
2023-05-16T08:38:19.181Z,100.00
2023-05-16T08:40:46.512Z,100.00
2023-05-16T08:43:14.936Z,100.00
2023-05-16T08:45:41.742Z,100.00
2023-05-16T08:48:10.911Z,100.00
2023-05-16T08:50:38.010Z,100.00
2023-05-16T08:53:06.391Z,100.00
2023-05-16T08:55:35.221Z,100.00
2023-05-16T08:58:03.910Z,100.00
2023-05-16T09:00:32.754Z,100.00
2023-05-16T09:03:00.544Z,100.00
2023-05-16T09:05:30.240Z,100.00
2023-05-16T09:08:00.364Z,100.00
2023-05-16T09:10:28.188Z,100.00
2023-05-16T09:12:55.568Z,100.00
2023-05-16T09:15:22.374Z,100.00
2023-05-16T09:17:50.786Z,100.00
2023-05-16T09:20:19.607Z,100.00
2023-05-16T09:22:53.577Z,100.00
2023-05-16T09:25:29.341Z,100.00
2023-05-16T09:27:59.521Z,100.00
2023-05-16T09:30:29.068Z,100.00
2023-05-16T09:32:57.724Z,100.00
2023-05-16T09:35:39.778Z,100.00
2023-05-16T09:38:14.388Z,100.00
2023-05-16T09:40:42.252Z,100.00
2023-05-16T09:43:09.189Z,100.00
2023-05-16T09:45:36.707Z,100.00
2023-05-16T09:48:08.003Z,100.00
2023-05-16T09:50:36.035Z,100.00
2023-05-16T09:53:03.385Z,100.00
2023-05-16T09:55:30.715Z,100.00
2023-05-16T09:57:57.773Z,100.00
2023-05-16T10:00:31.357Z,100.00
2023-05-16T10:03:00.448Z,100.00
2023-05-16T10:05:32.020Z,100.00
2023-05-16T10:07:59.175Z,100.00
2023-05-16T10:10:27.713Z,100.00
2023-05-16T10:12:58.813Z,100.00
2023-05-16T10:15:26.281Z,100.00
2023-05-16T10:17:56.044Z,100.00
2023-05-16T10:20:27.731Z,100.00
2023-05-16T10:22:58.325Z,100.00
2023-05-16T10:25:29.830Z,100.00
2023-05-16T10:27:57.896Z,100.00
2023-05-16T10:30:25.097Z,100.00
2023-05-16T10:32:52.192Z,100.00
2023-05-16T10:35:20.229Z,100.00
2023-05-16T10:37:48.387Z,100.00
2023-05-16T10:40:17.846Z,100.00
2023-05-16T10:42:54.249Z,100.00
2023-05-16T10:45:24.410Z,100.00
2023-05-16T10:47:52.988Z,100.00
2023-05-16T10:50:34.020Z,100.00
2023-05-16T10:53:14.736Z,100.00
2023-05-16T10:55:49.820Z,100.00
2023-05-16T10:58:23.262Z,100.00
2023-05-16T11:00:50.172Z,100.00
2023-05-16T11:03:23.758Z,100.00
2023-05-16T11:05:52.661Z,100.00
2023-05-16T11:08:19.594Z,100.00
2023-05-16T11:10:47.797Z,100.00
2023-05-16T11:13:14.650Z,100.00
2023-05-16T11:15:41.933Z,100.00
2023-05-16T11:18:14.336Z,100.00
2023-05-16T11:20:41.968Z,100.00
2023-05-16T11:23:26.283Z,100.00
2023-05-16T11:25:56.754Z,100.00
2023-05-16T11:28:25.226Z,100.00
2023-05-16T11:30:53.332Z,100.00
2023-05-16T11:33:20.279Z,100.00
2023-05-16T11:36:15.097Z,100.00
2023-05-16T11:38:42.993Z,100.00
2023-05-16T11:41:11.399Z,100.00
2023-05-16T11:43:41.145Z,100.00
2023-05-16T11:46:11.398Z,100.00
2023-05-16T11:48:38.626Z,100.00
2023-05-16T11:51:07.049Z,100.00
2023-05-16T11:53:34.094Z,100.00
2023-05-16T11:56:01.069Z,100.00
2023-05-16T11:58:29.500Z,100.00
2023-05-16T12:00:57.220Z,100.00
2023-05-16T12:03:24.144Z,100.00
2023-05-16T12:05:51.677Z,100.00
2023-05-16T12:08:18.740Z,100.00
2023-05-16T12:10:45.669Z,100.00
2023-05-16T12:13:13.077Z,100.00
2023-05-16T12:15:41.493Z,100.00
2023-05-16T12:18:08.866Z,100.00
2023-05-16T12:20:35.966Z,100.00
2023-05-16T12:23:02.991Z,100.00
2023-05-16T12:25:31.586Z,100.00
2023-05-16T12:28:01.216Z,100.00
2023-05-16T12:30:30.762Z,100.00
2023-05-16T12:33:01.821Z,100.00
2023-05-16T12:35:32.012Z,100.00
2023-05-16T12:37:59.179Z,100.00
2023-05-16T12:40:29.026Z,100.00
2023-05-16T12:42:56.519Z,100.00
2023-05-16T12:45:23.898Z,100.00
2023-05-16T12:47:50.776Z,100.00
2023-05-16T12:50:19.299Z,100.00
2023-05-16T12:52:50.274Z,100.00
2023-05-16T12:55:17.318Z,100.00
2023-05-16T12:57:44.560Z,100.00
2023-05-16T13:00:13.396Z,100.00
2023-05-16T13:02:41.135Z,100.00
2023-05-16T13:05:09.036Z,100.00
2023-05-16T13:07:37.583Z,100.00
2023-05-16T13:10:05.103Z,100.00
2023-05-16T13:12:32.047Z,100.00
2023-05-16T13:14:58.859Z,100.00
2023-05-16T13:17:25.831Z,100.00
2023-05-16T13:19:52.673Z,100.00
2023-05-16T13:22:20.236Z,100.00
2023-05-16T13:24:48.462Z,100.00
2023-05-16T13:27:17.096Z,100.00
2023-05-16T13:29:44.704Z,100.00
2023-05-16T13:32:14.285Z,100.00
2023-05-16T13:34:41.209Z,100.00
2023-05-16T13:37:08.077Z,100.00
2023-05-16T13:39:34.986Z,100.00
2023-05-16T13:42:03.808Z,100.00
2023-05-16T13:44:30.976Z,100.00
2023-05-16T13:46:58.112Z,100.00
2023-05-16T13:49:25.126Z,100.00
2023-05-16T13:51:52.002Z,100.00
2023-05-16T13:54:19.122Z,100.00
2023-05-16T13:56:46.071Z,100.00
2023-05-16T13:59:18.504Z,100.00
2023-05-16T14:01:47.751Z,100.00
2023-05-16T14:04:14.881Z,100.00
2023-05-16T14:06:42.221Z,100.00
2023-05-16T14:09:09.390Z,100.00
2023-05-16T14:11:36.254Z,100.00
2023-05-16T14:14:03.171Z,100.00
2023-05-16T14:16:31.482Z,100.00
2023-05-16T14:18:58.306Z,100.00
2023-05-16T14:21:25.303Z,100.00
2023-05-16T14:23:52.162Z,100.00
2023-05-16T14:26:18.958Z,100.00
2023-05-16T14:28:45.833Z,100.00
2023-05-16T14:31:12.686Z,100.00
2023-05-16T14:33:40.885Z,100.00
2023-05-16T14:36:08.687Z,100.00
2023-05-16T14:38:35.933Z,100.00
2023-05-16T14:41:03.017Z,100.00
2023-05-16T14:43:30.023Z,100.00
2023-05-16T14:45:56.860Z,100.00
2023-05-16T14:48:23.868Z,100.00
2023-05-16T14:50:52.158Z,100.00
2023-05-16T14:53:19.241Z,100.00
2023-05-16T14:55:46.108Z,100.00
2023-05-16T14:58:12.950Z,100.00
2023-05-16T15:00:39.785Z,100.00
2023-05-16T15:03:06.801Z,100.00
2023-05-16T15:05:34.164Z,100.00
2023-05-16T15:08:02.387Z,100.00
2023-05-16T15:10:29.601Z,100.00
2023-05-16T15:12:57.166Z,100.00
2023-05-16T15:15:24.572Z,100.00
2023-05-16T15:17:51.745Z,100.00
2023-05-16T15:20:19.459Z,100.00
2023-05-16T15:22:48.183Z,100.00
2023-05-16T15:25:16.422Z,100.00
2023-05-16T15:27:44.240Z,100.00
2023-05-16T15:30:11.801Z,100.00
2023-05-16T15:32:38.610Z,100.00
2023-05-16T15:35:24.089Z,100.00
2023-05-16T15:38:11.418Z,100.00
2023-05-16T15:40:39.747Z,100.00
2023-05-16T15:43:07.287Z,100.00
2023-05-16T15:45:34.334Z,100.00
2023-05-16T15:48:01.228Z,100.00
2023-05-16T15:50:28.204Z,100.00
2023-05-16T15:52:55.014Z,100.00
2023-05-16T15:55:21.957Z,100.00
2023-05-16T15:57:50.183Z,100.00
2023-05-16T16:00:17.641Z,100.00
2023-05-16T16:02:44.473Z,100.00
2023-05-16T16:05:14.257Z,100.00
2023-05-16T16:07:41.056Z,100.00
2023-05-16T16:10:09.006Z,100.00
2023-05-16T16:12:35.777Z,100.00
2023-05-16T16:15:04.417Z,100.00
2023-05-16T16:17:31.450Z,100.00
2023-05-16T16:19:58.390Z,100.00
2023-05-16T16:22:25.352Z,100.00
2023-05-16T16:24:52.957Z,100.00
2023-05-16T16:27:19.812Z,100.00
2023-05-16T16:29:46.681Z,100.00
2023-05-16T16:32:14.912Z,100.00
2023-05-16T16:34:41.782Z,100.00
2023-05-16T16:37:09.664Z,100.00
2023-05-16T16:39:36.443Z,100.00
2023-05-16T16:42:03.240Z,100.00
2023-05-16T16:44:32.228Z,100.00
2023-05-16T16:46:59.312Z,100.00
2023-05-16T16:49:28.089Z,100.00
2023-05-16T16:51:55.502Z,100.00
2023-05-16T16:54:22.499Z,100.00
2023-05-16T16:56:49.421Z,100.00
2023-05-16T16:59:16.468Z,100.00
2023-05-16T17:01:43.814Z,100.00
2023-05-16T17:04:11.352Z,100.00
2023-05-16T17:06:39.524Z,100.00
2023-05-16T17:09:06.874Z,100.00
2023-05-16T17:11:33.772Z,100.00
2023-05-16T17:14:00.573Z,100.00
2023-05-16T17:16:30.474Z,100.00
2023-05-16T17:18:57.324Z,100.00
2023-05-16T17:21:24.251Z,100.00
2023-05-16T17:23:52.474Z,100.00
2023-05-16T17:26:19.308Z,100.00
2023-05-16T17:28:46.375Z,100.00
2023-05-16T17:31:13.211Z,100.00
2023-05-16T17:33:40.304Z,100.00
2023-05-16T17:36:07.525Z,100.00
2023-05-16T17:38:34.671Z,100.00
2023-05-16T17:41:03.056Z,100.00
2023-05-16T17:43:30.150Z,100.00
2023-05-16T17:45:57.003Z,100.00
2023-05-16T17:48:24.076Z,100.00
2023-05-16T17:50:51.232Z,100.00
2023-05-16T17:53:18.141Z,100.00
2023-05-16T17:55:45.161Z,100.00
2023-05-16T17:58:13.498Z,100.00
2023-05-16T18:00:40.425Z,100.00
2023-05-16T18:03:07.400Z,100.00
2023-05-16T18:05:34.464Z,100.00
2023-05-16T18:08:01.524Z,100.00
2023-05-16T18:10:33.967Z,100.00
2023-05-16T18:13:10.630Z,100.00
2023-05-16T18:15:38.919Z,100.00
2023-05-16T18:18:05.864Z,100.00
2023-05-16T18:20:32.817Z,100.00
2023-05-16T18:22:59.822Z,100.00
2023-05-16T18:25:26.854Z,100.00
2023-05-16T18:27:54.008Z,100.00
2023-05-16T18:30:21.042Z,100.00
2023-05-16T18:32:49.471Z,100.00
2023-05-16T18:35:18.292Z,100.00
2023-05-16T18:37:45.119Z,100.00
2023-05-16T18:40:12.752Z,100.00
2023-05-16T18:42:39.551Z,100.00
2023-05-16T18:45:07.610Z,100.00
2023-05-16T18:47:34.484Z,100.00
2023-05-16T18:50:02.871Z,100.00
2023-05-16T18:52:29.754Z,100.00
2023-05-16T18:54:57.038Z,100.00
2023-05-16T18:57:23.867Z,100.00
2023-05-16T18:59:53.435Z,100.00
2023-05-16T19:02:27.256Z,100.00
2023-05-16T19:05:02.663Z,100.00
2023-05-16T19:07:30.061Z,100.00
2023-05-16T19:09:56.880Z,100.00
2023-05-16T19:12:24.783Z,100.00
2023-05-16T19:14:52.158Z,100.00
2023-05-16T19:17:19.178Z,100.00
2023-05-16T19:19:46.222Z,100.00
2023-05-16T19:22:14.717Z,100.00
2023-05-16T19:24:41.764Z,100.00
2023-05-16T19:27:08.711Z,100.00
2023-05-16T19:29:35.674Z,100.00
2023-05-16T19:32:02.472Z,100.00
2023-05-16T19:34:29.412Z,100.00
2023-05-16T19:36:56.364Z,100.00
2023-05-16T19:39:24.536Z,100.00
2023-05-16T19:41:52.484Z,100.00
2023-05-16T19:44:19.401Z,100.00
2023-05-16T19:46:46.284Z,100.00
2023-05-16T19:49:13.132Z,100.00
2023-05-16T19:51:42.170Z,100.00
2023-05-16T19:54:09.524Z,100.00
2023-05-16T19:56:37.750Z,100.00
2023-05-16T19:59:04.538Z,100.00
2023-05-16T20:01:31.344Z,100.00
2023-05-16T20:03:58.186Z,100.00
2023-05-16T20:06:25.136Z,100.00
2023-05-16T20:08:51.947Z,100.00
2023-05-16T20:11:18.797Z,100.00
2023-05-16T20:13:47.079Z,100.00
2023-05-16T20:16:13.958Z,100.00
2023-05-16T20:18:40.868Z,100.00
2023-05-16T20:21:07.759Z,100.00
2023-05-16T20:23:34.652Z,100.00
2023-05-16T20:26:01.513Z,100.00
2023-05-16T20:28:28.296Z,100.00
2023-05-16T20:30:56.584Z,100.00
2023-05-16T20:33:23.685Z,100.00
2023-05-16T20:35:50.687Z,100.00
2023-05-16T20:38:18.515Z,100.00
2023-05-16T20:40:45.745Z,100.00
2023-05-16T20:43:12.557Z,100.00
2023-05-16T20:45:39.449Z,100.00
2023-05-16T20:48:07.798Z,100.00
2023-05-16T20:50:34.621Z,100.00
2023-05-16T20:53:01.793Z,100.00
2023-05-16T20:55:28.995Z,100.00
2023-05-16T20:57:56.013Z,100.00
2023-05-16T21:00:23.113Z,100.00
2023-05-16T21:02:49.975Z,100.00
2023-05-16T21:05:25.064Z,100.00
2023-05-16T21:07:52.314Z,100.00
2023-05-16T21:10:19.165Z,100.00
2023-05-16T21:12:46.117Z,100.00
2023-05-16T21:15:13.044Z,100.00
2023-05-16T21:17:39.870Z,100.00
2023-05-16T21:20:09.523Z,100.00
2023-05-16T21:22:38.427Z,100.00
2023-05-16T21:25:06.112Z,100.00
2023-05-16T21:27:32.949Z,100.00
2023-05-16T21:29:59.847Z,100.00
2023-05-16T21:32:26.678Z,100.00
2023-05-16T21:34:53.544Z,100.00
2023-05-16T21:37:20.342Z,100.00
2023-05-16T21:39:48.523Z,100.00
2023-05-16T21:42:15.285Z,100.00
2023-05-16T21:44:42.065Z,100.00
2023-05-16T21:47:08.931Z,100.00
2023-05-16T21:49:35.766Z,100.00
2023-05-16T21:52:04.906Z,100.00
2023-05-16T21:54:33.676Z,100.00
2023-05-16T21:57:01.807Z,100.00
2023-05-16T21:59:28.615Z,100.00
2023-05-16T22:01:55.444Z,100.00
2023-05-16T22:04:22.454Z,100.00
2023-05-16T22:06:49.337Z,100.00
2023-05-16T22:09:16.163Z,100.00
2023-05-16T22:11:43.031Z,100.00
2023-05-16T22:14:11.390Z,100.00
2023-05-16T22:16:38.290Z,100.00
2023-05-16T22:19:05.086Z,100.00
2023-05-16T22:21:32.103Z,100.00
2023-05-16T22:23:58.881Z,100.00
2023-05-16T22:26:25.657Z,100.00
2023-05-16T22:28:52.501Z,100.00
2023-05-16T22:31:20.774Z,100.00
2023-05-16T22:33:47.592Z,100.00
2023-05-16T22:36:14.395Z,100.00
2023-05-16T22:38:41.182Z,100.00
2023-05-16T22:41:08.168Z,100.00
2023-05-16T22:43:34.957Z,100.00
2023-05-16T22:46:03.254Z,100.00
2023-05-16T22:48:31.747Z,100.00
2023-05-16T22:50:59.686Z,100.00
2023-05-16T22:53:26.572Z,100.00
2023-05-16T22:55:53.408Z,100.00
2023-05-16T22:58:20.214Z,100.00
2023-05-16T23:00:47.215Z,100.00
2023-05-16T23:03:14.088Z,100.00
2023-05-16T23:05:42.375Z,100.00
2023-05-16T23:08:09.164Z,100.00
2023-05-16T23:10:36.108Z,100.00
2023-05-16T23:13:02.864Z,100.00
2023-05-16T23:15:29.770Z,100.00
2023-05-16T23:17:56.845Z,100.00
2023-05-16T23:20:23.815Z,100.00
2023-05-16T23:22:52.073Z,100.00
2023-05-16T23:25:18.990Z,100.00
2023-05-16T23:27:45.790Z,100.00
2023-05-16T23:30:13.155Z,100.00
2023-05-16T23:32:40.085Z,100.00
2023-05-16T23:35:07.840Z,100.00
2023-05-16T23:37:34.648Z,100.00
2023-05-16T23:40:02.925Z,100.00
2023-05-16T23:42:29.737Z,100.00
2023-05-16T23:44:56.531Z,100.00
2023-05-16T23:47:23.430Z,100.00
2023-05-16T23:49:50.271Z,100.00
2023-05-16T23:52:17.044Z,100.00
2023-05-16T23:54:43.795Z,100.00
2023-05-16T23:57:12.059Z,100.00
2023-05-16T23:59:38.900Z,100.00
